Time;durP1;ratioP1;P1;durP2;ratioP2;P2;SDS_P1;SDS_P2;PMS_P1;PMS_P2;Temp;Humidity;BMP_temperature;BMP_pressure;BME280_temperature;BME280_humidity;BME280_pressure;Samples;Min_cycle;Max_cycle;Signal;HPM_P1;HPM_P2
2022/08/14 00:01:29;;;;;;;3.47;3.17;;;18.00;97.70;;;;;;5036444;28;20209;-87
2022/08/14 00:03:55;;;;;;;5.10;3.47;;;17.90;98.20;;;;;;5053537;28;20184;-87
2022/08/14 00:06:21;;;;;;;4.70;3.80;;;17.70;98.40;;;;;;5053523;28;20185;-87
2022/08/14 00:08:47;;;;;;;3.97;3.40;;;17.60;98.50;;;;;;5036499;28;20216;-87
2022/08/14 00:11:13;;;;;;;3.60;3.30;;;17.50;98.70;;;;;;5036342;28;20255;-87
2022/08/14 00:13:39;;;;;;;4.17;3.50;;;17.40;99.00;;;;;;5036735;28;20189;-87
2022/08/14 00:16:05;;;;;;;4.37;3.23;;;17.30;99.50;;;;;;5036510;28;20193;-87
2022/08/14 00:18:30;;;;;;;4.10;3.50;;;17.20;99.60;;;;;;5036448;28;20186;-87
2022/08/14 00:20:57;;;;;;;5.47;3.20;;;17.10;99.80;;;;;;5036119;28;20208;-87
2022/08/14 00:23:24;;;;;;;5.00;3.50;;;17.10;99.90;;;;;;5036489;28;20181;-88
2022/08/14 00:25:52;;;;;;;3.53;3.20;;;17.10;99.90;;;;;;5052782;28;20217;-87
2022/08/14 00:28:24;;;;;;;5.63;3.43;;;17.10;99.90;;;;;;5036081;28;20178;-87
2022/08/14 00:30:56;;;;;;;4.00;3.53;;;17.10;99.90;;;;;;5052939;28;20188;-87
2022/08/14 00:33:23;;;;;;;5.03;3.60;;;17.20;99.90;;;;;;5036745;28;20182;-87
2022/08/14 00:35:49;;;;;;;3.70;3.37;;;17.10;99.90;;;;;;5036673;28;20221;-87
2022/08/14 00:38:17;;;;;;;5.23;3.47;;;17.10;99.90;;;;;;5052774;28;20190;-87
2022/08/14 00:40:43;;;;;;;3.23;3.03;;;17.00;99.90;;;;;;5035865;28;20202;-87
2022/08/14 00:43:10;;;;;;;4.43;3.37;;;17.00;99.90;;;;;;5036276;28;20194;-87
2022/08/14 00:45:36;;;;;;;3.40;3.10;;;17.00;99.90;;;;;;5036125;28;20170;-87
2022/08/14 00:48:03;;;;;;;3.27;2.70;;;17.00;99.90;;;;;;5036477;28;20177;-87
2022/08/14 00:50:29;;;;;;;3.97;3.53;;;16.80;99.90;;;;;;5035834;28;20174;-87
2022/08/14 00:52:58;;;;;;;3.27;3.07;;;16.70;99.90;;;;;;5035668;28;20204;-87
2022/08/14 00:55:26;;;;;;;4.03;3.63;;;16.70;99.90;;;;;;5052481;28;20208;-88
2022/08/14 01:00:39;;;;;;;3.70;3.40;;;16.60;99.90;;;;;;5052257;28;20280;-88
2022/08/14 01:03:06;;;;;;;3.37;3.07;;;16.60;99.90;;;;;;5035627;28;20201;-87
2022/08/14 01:05:33;;;;;;;3.57;2.93;;;16.60;99.90;;;;;;5035962;28;20177;-88
2022/08/14 01:08:00;;;;;;;3.53;3.27;;;16.60;99.90;;;;;;5052301;28;20205;-88
2022/08/14 01:13:15;;;;;;;3.97;3.53;;;16.60;99.90;;;;;;5052718;28;20201;-88
2022/08/14 01:15:47;;;;;;;3.50;3.20;;;16.50;99.90;;;;;;5035886;28;20182;-87
2022/08/14 01:21:02;;;;;;;4.70;3.40;;;16.50;99.90;;;;;;5051722;28;20269;-88
2022/08/14 01:23:29;;;;;;;3.57;3.13;;;16.50;99.90;;;;;;5052193;28;20158;-87
2022/08/14 01:25:57;;;;;;;4.43;3.43;;;16.50;99.90;;;;;;5035376;28;20190;-87
2022/08/14 01:28:25;;;;;;;5.03;3.80;;;16.50;99.90;;;;;;5035224;28;20211;-87
2022/08/14 01:30:55;;;;;;;3.97;3.30;;;16.50;99.90;;;;;;5034906;28;20182;-87
2022/08/14 01:33:27;;;;;;;3.40;3.10;;;16.40;99.90;;;;;;5052318;28;20198;-88
2022/08/14 01:35:59;;;;;;;4.47;3.23;;;16.40;99.90;;;;;;5035912;28;20658;-88
2022/08/14 01:38:33;;;;;;;4.00;3.40;;;16.40;99.90;;;;;;5051588;28;20170;-87
2022/08/14 01:41:06;;;;;;;4.80;3.40;;;16.30;99.90;;;;;;5034681;28;20339;-88
2022/08/14 01:43:42;;;;;;;4.43;3.20;;;16.30;99.90;;;;;;5035284;28;20181;-87
2022/08/14 01:46:10;;;;;;;4.10;3.30;;;16.40;99.90;;;;;;5035123;28;20311;-87
2022/08/14 01:48:37;;;;;;;4.20;3.27;;;16.40;99.90;;;;;;5035312;28;20249;-87
2022/08/14 01:51:05;;;;;;;3.50;3.10;;;16.40;99.90;;;;;;5051448;28;20415;-87
2022/08/14 01:53:31;;;;;;;4.17;3.00;;;16.40;99.90;;;;;;5035377;28;20182;-87
2022/08/14 01:56:04;;;;;;;4.07;2.60;;;16.40;99.90;;;;;;5051475;28;20244;-87
2022/08/14 01:58:30;;;;;;;4.00;3.27;;;16.40;99.90;;;;;;5051553;28;20192;-87
2022/08/14 02:00:57;;;;;;;3.23;2.93;;;16.40;99.90;;;;;;5034972;28;20232;-88
2022/08/14 02:03:27;;;;;;;3.63;3.30;;;16.40;99.90;;;;;;5035349;28;20182;-87
2022/08/14 02:05:57;;;;;;;3.40;3.10;;;16.40;99.90;;;;;;5035123;28;20190;-87
2022/08/14 02:08:26;;;;;;;3.57;3.27;;;16.30;99.90;;;;;;5034281;28;20177;-87
2022/08/14 02:11:15;;;;;;;3.10;2.80;;;16.40;99.90;;;;;;5034503;28;20231;-87
2022/08/14 02:13:39;;;;;;;3.30;3.00;;;16.30;99.90;;;;;;5051086;28;20646;-87
2022/08/14 02:16:06;;;;;;;5.77;3.23;;;16.30;99.90;;;;;;5050864;28;20217;-87
2022/08/14 02:18:32;;;;;;;3.40;3.10;;;16.20;99.90;;;;;;5034593;28;20186;-87
2022/08/14 02:20:58;;;;;;;3.90;3.50;;;16.10;99.90;;;;;;5033976;28;20263;-87
2022/08/14 02:23:24;;;;;;;4.80;3.80;;;15.90;99.90;;;;;;5034878;28;20190;-87
2022/08/14 02:25:50;;;;;;;4.30;3.90;;;16.00;99.90;;;;;;5034588;28;20194;-87
2022/08/14 02:28:16;;;;;;;3.93;3.47;;;15.90;99.90;;;;;;5033863;28;20189;-87
2022/08/14 02:30:43;;;;;;;4.00;3.60;;;15.80;99.90;;;;;;5034650;28;20177;-87
2022/08/14 02:33:09;;;;;;;5.37;3.53;;;15.80;99.90;;;;;;5034693;28;20209;-87
2022/08/14 02:35:35;;;;;;;4.00;3.57;;;15.70;99.90;;;;;;5034542;28;20178;-87
2022/08/14 02:38:01;;;;;;;4.20;3.33;;;15.70;99.90;;;;;;5034351;28;20588;-87
2022/08/14 02:40:30;;;;;;;6.83;3.60;;;15.70;99.90;;;;;;5033854;28;20205;-87
2022/08/14 02:42:56;;;;;;;4.70;3.93;;;15.70;99.90;;;;;;5034454;28;20217;-87
2022/08/14 02:45:23;;;;;;;4.47;3.60;;;15.60;99.90;;;;;;5034746;28;20630;-87
2022/08/14 02:47:49;;;;;;;3.57;3.27;;;15.50;99.90;;;;;;5034180;28;20198;-87
2022/08/14 02:50:16;;;;;;;4.20;3.80;;;15.30;99.90;;;;;;5034303;28;20209;-87
2022/08/14 02:52:42;;;;;;;4.23;3.83;;;15.10;99.90;;;;;;5034387;28;20193;-88
2022/08/14 02:55:08;;;;;;;3.93;3.60;;;15.00;99.90;;;;;;5033715;28;20178;-87
2022/08/14 02:57:34;;;;;;;7.07;4.07;;;14.90;99.90;;;;;;5034479;28;20197;-87
2022/08/14 03:00:01;;;;;;;4.73;4.30;;;14.80;99.90;;;;;;5033778;28;20212;-87
2022/08/14 03:02:32;;;;;;;4.10;3.80;;;14.80;99.90;;;;;;5033980;28;20198;-87
2022/08/14 03:04:58;;;;;;;4.23;3.80;;;14.70;99.90;;;;;;5050755;28;20170;-87
2022/08/14 03:07:24;;;;;;;4.30;3.90;;;14.70;99.90;;;;;;5034197;28;20178;-87
2022/08/14 03:09:50;;;;;;;4.23;3.90;;;14.70;99.90;;;;;;5033931;28;20666;-87
2022/08/14 03:12:16;;;;;;;4.30;3.73;;;14.80;99.90;;;;;;5034165;28;20251;-88
2022/08/14 03:14:48;;;;;;;3.90;3.60;;;14.70;99.90;;;;;;5051264;28;20194;-87
2022/08/14 03:17:14;;;;;;;4.67;4.17;;;14.80;99.90;;;;;;5051788;28;20176;-87
2022/08/14 03:19:41;;;;;;;5.43;3.73;;;14.80;99.90;;;;;;5034773;28;20185;-87
2022/08/14 03:22:07;;;;;;;4.37;3.97;;;14.70;99.90;;;;;;5034732;28;20227;-87
2022/08/14 03:24:35;;;;;;;4.77;4.03;;;14.80;99.90;;;;;;5034394;28;20190;-87
2022/08/14 03:27:02;;;;;;;3.67;3.37;;;14.80;99.90;;;;;;5053020;28;20185;-87
2022/08/14 03:29:28;;;;;;;3.67;3.37;;;14.80;99.90;;;;;;5054813;28;20185;-87
2022/08/14 03:31:54;;;;;;;4.93;4.17;;;14.80;99.90;;;;;;5037936;28;20374;-87
2022/08/14 03:34:22;;;;;;;4.00;3.63;;;14.80;99.90;;;;;;5038419;28;20178;-87
2022/08/14 03:36:54;;;;;;;4.00;3.70;;;14.80;99.90;;;;;;5037411;28;20173;-87
2022/08/14 03:39:21;;;;;;;3.60;3.30;;;14.80;99.90;;;;;;5038069;28;20174;-87
2022/08/14 03:41:48;;;;;;;5.67;3.93;;;14.80;99.90;;;;;;5037615;28;20217;-87
2022/08/14 03:44:14;;;;;;;4.20;3.80;;;14.80;99.90;;;;;;5037825;28;20247;-87
2022/08/14 03:46:41;;;;;;;4.77;3.57;;;14.70;99.90;;;;;;5054442;28;20182;-87
2022/08/14 03:49:08;;;;;;;6.47;4.00;;;14.70;99.90;;;;;;5037662;28;20170;-87
2022/08/14 03:51:36;;;;;;;5.77;3.80;;;14.70;99.90;;;;;;5037768;28;20205;-87
2022/08/14 03:54:09;;;;;;;5.97;4.37;;;14.60;99.90;;;;;;5037691;28;20212;-87
2022/08/14 03:56:43;;;;;;;3.87;3.50;;;14.60;99.90;;;;;;5037716;28;20257;-87
2022/08/14 03:59:12;;;;;;;4.37;3.97;;;14.40;99.90;;;;;;5049915;28;20253;-87
2022/08/14 04:01:40;;;;;;;4.43;3.70;;;14.40;99.90;;;;;;5036231;28;20239;-87
2022/08/14 04:04:07;;;;;;;6.47;3.90;;;14.40;99.90;;;;;;5037641;28;20173;-87
2022/08/14 04:06:35;;;;;;;4.47;4.00;;;14.30;99.90;;;;;;5038056;28;20239;-87
2022/08/14 04:09:06;;;;;;;3.93;3.63;;;14.30;99.90;;;;;;5036759;28;20196;-87
2022/08/14 04:11:33;;;;;;;5.30;3.60;;;14.40;99.90;;;;;;5070425;28;20289;-87
2022/08/14 04:14:00;;;;;;;3.90;3.60;;;14.50;99.90;;;;;;5054048;28;20189;-87
2022/08/14 04:16:25;;;;;;;5.00;4.07;;;14.50;99.90;;;;;;5053936;28;20254;-87
2022/08/14 04:18:54;;;;;;;4.03;3.57;;;14.50;99.90;;;;;;5037151;28;20273;-87
2022/08/14 04:21:23;;;;;;;4.33;3.93;;;14.40;99.90;;;;;;5070174;28;20245;-86
2022/08/14 04:23:51;;;;;;;4.70;3.80;;;14.30;99.90;;;;;;5037530;28;20185;-87
2022/08/14 04:26:20;;;;;;;4.23;3.83;;;14.20;99.90;;;;;;5037382;28;20189;-87
2022/08/14 04:28:48;;;;;;;3.80;3.50;;;14.20;99.90;;;;;;5035799;28;20180;-87
2022/08/14 04:31:14;;;;;;;4.77;3.77;;;14.20;99.90;;;;;;5050699;28;20185;-87
2022/08/14 04:33:40;;;;;;;5.70;4.00;;;14.30;99.90;;;;;;5052823;28;20174;-87
2022/08/14 04:36:06;;;;;;;4.07;3.77;;;14.30;99.90;;;;;;5036746;28;20189;-87
2022/08/14 04:44:10;;;;;;;4.63;4.23;;;14.30;99.90;;;;;;5032918;28;20193;-87
2022/08/14 04:46:36;;;;;;;4.40;4.00;;;14.10;99.90;;;;;;5036641;28;20178;-87
2022/08/14 04:49:04;;;;;;;4.83;4.00;;;14.10;99.90;;;;;;5036618;28;20180;-87
2022/08/14 04:51:31;;;;;;;5.10;3.63;;;14.10;99.90;;;;;;5036373;28;20197;-86
2022/08/14 04:54:00;;;;;;;4.10;3.70;;;14.10;99.90;;;;;;5040403;28;20549;-87
2022/08/14 04:56:27;;;;;;;4.43;3.67;;;14.20;99.90;;;;;;5036871;28;20194;-86
2022/08/14 04:58:58;;;;;;;4.40;4.00;;;14.30;99.90;;;;;;5036601;28;20174;-87
2022/08/14 05:01:28;;;;;;;4.63;4.23;;;14.40;99.90;;;;;;5035347;28;20213;-87
2022/08/14 05:03:56;;;;;;;4.67;4.20;;;14.40;99.90;;;;;;5036061;28;20189;-87
2022/08/14 05:06:22;;;;;;;5.60;4.40;;;14.50;99.90;;;;;;5035678;28;20170;-87
2022/08/14 05:08:48;;;;;;;4.40;4.00;;;14.60;99.90;;;;;;5036118;28;20181;-87
2022/08/14 05:11:14;;;;;;;4.50;4.10;;;14.70;99.90;;;;;;5035497;28;20174;-87
2022/08/14 05:14:02;;;;;;;4.70;3.93;;;14.80;99.90;;;;;;5035700;28;20186;-87
2022/08/14 05:16:30;;;;;;;5.10;4.27;;;15.00;99.90;;;;;;5052359;28;20180;-87
2022/08/14 05:18:57;;;;;;;4.43;3.80;;;15.00;99.90;;;;;;5035669;28;20189;-87
2022/08/14 05:21:24;;;;;;;4.20;3.37;;;15.10;99.90;;;;;;5035496;28;20214;-87
2022/08/14 05:23:50;;;;;;;4.47;3.70;;;15.10;99.90;;;;;;5035792;28;20182;-87
2022/08/14 05:26:17;;;;;;;5.00;3.53;;;15.10;99.90;;;;;;5051889;28;20196;-87
2022/08/14 05:28:44;;;;;;;3.90;3.60;;;15.10;99.90;;;;;;5035502;28;20264;-87
2022/08/14 05:31:18;;;;;;;4.33;3.93;;;15.20;99.90;;;;;;5051780;28;20182;-87
2022/08/14 05:33:45;;;;;;;5.07;3.90;;;15.20;99.90;;;;;;5035313;28;20246;-87
2022/08/14 05:36:12;;;;;;;4.50;4.10;;;15.30;99.90;;;;;;5035189;28;20276;-87
2022/08/14 05:38:44;;;;;;;4.43;3.83;;;15.40;99.90;;;;;;5035362;28;20210;-87
2022/08/14 05:41:16;;;;;;;3.93;3.60;;;15.40;99.90;;;;;;5035026;28;20315;-87
2022/08/14 05:44:13;;;;;;;4.63;3.93;;;15.50;99.90;;;;;;5035204;28;20267;-87
2022/08/14 05:46:39;;;;;;;3.93;3.63;;;15.60;99.90;;;;;;5035006;28;20629;-87
2022/08/14 05:49:06;;;;;;;3.87;3.57;;;15.70;99.90;;;;;;5051278;28;20299;-87
2022/08/14 05:51:32;;;;;;;4.37;4.00;;;15.70;99.90;;;;;;5050653;28;20201;-87
2022/08/14 05:53:58;;;;;;;4.17;3.83;;;15.70;99.90;;;;;;5034787;28;20182;-87
2022/08/14 05:56:25;;;;;;;4.47;3.93;;;15.80;99.90;;;;;;5052228;28;20181;-87
2022/08/14 05:58:52;;;;;;;5.47;4.33;;;15.90;99.90;;;;;;5052034;28;20193;-86
2022/08/14 06:01:18;;;;;;;4.60;4.07;;;16.00;99.90;;;;;;5034715;28;20214;-87
2022/08/14 06:03:44;;;;;;;4.73;4.23;;;16.10;99.90;;;;;;5051822;28;20170;-87
2022/08/14 06:06:10;;;;;;;4.03;3.73;;;16.10;99.90;;;;;;5051221;28;20186;-87
2022/08/14 06:08:36;;;;;;;4.40;4.00;;;16.20;99.90;;;;;;5051028;28;20197;-83
2022/08/14 06:11:05;;;;;;;5.13;4.63;;;16.30;99.90;;;;;;5033545;28;20174;-83
2022/08/14 06:13:39;;;;;;;5.13;4.43;;;16.40;99.90;;;;;;5034637;28;20182;-83
2022/08/14 06:16:06;;;;;;;5.23;4.40;;;16.50;99.90;;;;;;5051455;28;20174;-82
2022/08/14 06:18:34;;;;;;;4.60;4.20;;;16.60;99.90;;;;;;5044196;28;20193;-82
2022/08/14 06:21:03;;;;;;;4.43;4.03;;;16.70;99.90;;;;;;5014449;28;20218;-82
2022/08/14 06:23:29;;;;;;;5.07;4.60;;;16.80;99.90;;;;;;5015076;28;20174;-83
2022/08/14 06:25:57;;;;;;;4.47;4.13;;;16.90;99.90;;;;;;5029674;28;20190;-82
2022/08/14 06:28:24;;;;;;;7.00;4.03;;;17.10;99.90;;;;;;5032348;28;20187;-82
2022/08/14 06:30:51;;;;;;;5.30;3.90;;;17.30;99.90;;;;;;5026740;28;20182;-82
2022/08/14 06:33:20;;;;;;;4.67;4.27;;;17.40;99.90;;;;;;5034387;28;20208;-82
2022/08/14 06:35:48;;;;;;;4.53;4.20;;;17.60;99.90;;;;;;5034461;28;20178;-82
2022/08/14 06:38:20;;;;;;;5.63;3.73;;;17.70;99.90;;;;;;5034538;28;20267;-82
2022/08/14 06:40:48;;;;;;;3.90;3.60;;;17.90;99.90;;;;;;5033135;28;20201;-82
2022/08/14 06:43:16;;;;;;;4.47;4.07;;;18.00;99.90;;;;;;5034211;28;20285;-82
2022/08/14 06:45:44;;;;;;;6.13;4.40;;;18.20;99.90;;;;;;5034873;28;20702;-82
2022/08/14 06:48:15;;;;;;;4.70;4.20;;;18.40;99.90;;;;;;5034322;28;20182;-83
2022/08/14 06:50:42;;;;;;;4.28;3.97;;;18.50;99.90;;;;;;5050793;28;20259;-87
2022/08/14 06:53:08;;;;;;;4.63;4.00;;;18.60;99.90;;;;;;5051078;28;20716;-87
2022/08/14 06:55:34;;;;;;;4.50;4.10;;;18.70;99.90;;;;;;5034615;28;20239;-87
2022/08/14 06:58:00;;;;;;;4.38;4.00;;;18.80;99.90;;;;;;5023851;28;20205;-87
2022/08/14 07:00:27;;;;;;;4.20;3.90;;;19.00;99.90;;;;;;5014823;28;20214;-86
2022/08/14 07:05:45;;;;;;;4.32;3.80;;;19.00;99.90;;;;;;5066996;28;20217;-87
2022/08/14 07:08:28;;;;;;;3.78;3.47;;;19.20;99.90;;;;;;5040259;28;20174;-87
2022/08/14 07:10:57;;;;;;;5.05;4.15;;;19.40;99.90;;;;;;5038701;28;20176;-87
2022/08/14 07:13:24;;;;;;;4.18;3.88;;;19.50;99.90;;;;;;5038840;28;20197;-87
2022/08/14 07:15:53;;;;;;;4.20;3.90;;;19.60;99.90;;;;;;5038627;28;20207;-87
2022/08/14 07:18:21;;;;;;;4.20;3.78;;;19.70;99.90;;;;;;5055430;28;20182;-89
2022/08/14 07:20:48;;;;;;;3.83;3.53;;;19.80;99.90;;;;;;5037896;28;20205;-89
2022/08/14 07:23:14;;;;;;;5.13;4.10;;;20.00;99.90;;;;;;5021548;28;20285;-89
2022/08/14 07:26:03;;;;;;;4.60;3.70;;;20.10;99.90;;;;;;5031451;28;20200;-90
2022/08/14 07:28:33;;;;;;;5.43;3.78;;;20.30;99.90;;;;;;5038721;28;20170;-90
2022/08/14 07:31:01;;;;;;;4.35;3.85;;;20.40;99.90;;;;;;5036745;28;20213;-89
2022/08/14 07:33:30;;;;;;;4.50;3.75;;;20.40;99.90;;;;;;5029778;28;20178;-87
2022/08/14 07:35:59;;;;;;;4.93;3.65;;;20.60;99.90;;;;;;5024220;28;20199;-87
2022/08/14 07:38:28;;;;;;;6.07;3.97;;;20.70;99.90;;;;;;5030231;28;20193;-90
2022/08/14 07:40:54;;;;;;;3.72;3.42;;;20.70;99.70;;;;;;5027469;28;20197;-89
2022/08/14 07:43:39;;;;;;;4.15;3.70;;;20.80;99.60;;;;;;5038380;28;20194;-89
2022/08/14 07:46:06;;;;;;;3.83;3.47;;;20.90;99.70;;;;;;5043808;28;20274;-87
2022/08/14 07:48:40;;;;;;;4.15;3.67;;;21.00;99.90;;;;;;5023231;28;20177;-87
2022/08/14 07:51:06;;;;;;;3.78;3.45;;;21.10;99.90;;;;;;5038363;28;20232;-87
2022/08/14 07:53:32;;;;;;;4.15;3.60;;;21.20;99.90;;;;;;5048355;28;20183;-87
2022/08/14 07:55:59;;;;;;;4.45;3.35;;;21.40;99.50;;;;;;5022689;28;20277;-87
2022/08/14 07:58:25;;;;;;;4.95;3.50;;;21.50;98.90;;;;;;5018676;28;20183;-87
2022/08/14 08:00:55;;;;;;;3.88;3.58;;;21.70;98.50;;;;;;5022968;28;20255;-88
2022/08/14 08:03:24;;;;;;;4.38;3.40;;;21.80;98.80;;;;;;5023890;28;20201;-88
2022/08/14 08:05:50;;;;;;;4.70;2.90;;;22.00;98.60;;;;;;5017544;28;20260;-88
2022/08/14 08:08:16;;;;;;;3.83;3.08;;;22.10;98.20;;;;;;5017327;28;20179;-89
2022/08/14 08:10:43;;;;;;;3.40;3.10;;;22.30;97.70;;;;;;5017037;28;20285;-89
2022/08/14 08:13:13;;;;;;;3.92;3.38;;;22.60;97.00;;;;;;5030648;28;20205;-89
2022/08/14 08:15:45;;;;;;;3.20;3.00;;;22.80;96.60;;;;;;5036739;28;20178;-88
2022/08/14 08:18:13;;;;;;;3.53;3.22;;;22.90;95.80;;;;;;5037998;28;20189;-88
2022/08/14 08:20:42;;;;;;;3.80;3.50;;;23.20;95.80;;;;;;5053767;28;20205;-88
2022/08/14 08:23:09;;;;;;;2.85;2.67;;;23.20;95.20;;;;;;5036495;28;20198;-88
2022/08/14 08:25:38;;;;;;;3.42;3.13;;;23.50;95.20;;;;;;5036758;28;20677;-88
2022/08/14 08:28:08;;;;;;;5.95;2.75;;;23.70;94.80;;;;;;5036417;28;20670;-88
2022/08/14 08:30:37;;;;;;;3.25;3.05;;;24.00;95.00;;;;;;5036658;28;20190;-88
2022/08/14 08:33:04;;;;;;;3.03;2.83;;;24.30;94.40;;;;;;5036810;28;20201;-88
2022/08/14 08:35:33;;;;;;;2.90;2.70;;;24.50;93.60;;;;;;5053710;28;20237;-85
2022/08/14 08:38:02;;;;;;;3.65;2.90;;;24.70;93.30;;;;;;5052949;28;20209;-84
2022/08/14 08:40:35;;;;;;;2.70;2.50;;;24.90;93.30;;;;;;5036031;28;20201;-84
2022/08/14 08:43:08;;;;;;;4.47;2.95;;;25.10;93.10;;;;;;5036748;28;20206;-86
2022/08/14 08:45:37;;;;;;;3.88;2.90;;;25.40;93.00;;;;;;5035798;28;20170;-86
2022/08/14 08:48:03;;;;;;;3.28;2.80;;;25.60;92.50;;;;;;5034483;28;20167;-87
2022/08/14 08:50:36;;;;;;;3.28;2.60;;;25.70;92.10;;;;;;5016256;28;20178;-88
2022/08/14 08:53:05;;;;;;;3.15;2.65;;;26.00;92.00;;;;;;5033542;28;20195;-85
2022/08/14 08:55:31;;;;;;;2.72;2.47;;;26.30;91.10;;;;;;5016949;28;20666;-85
2022/08/14 08:57:59;;;;;;;3.08;2.53;;;26.40;90.80;;;;;;5018238;28;20183;-84
2022/08/14 09:00:28;;;;;;;3.05;2.85;;;26.60;90.90;;;;;;5016315;28;20242;-84
2022/08/14 09:02:56;;;;;;;2.90;2.70;;;26.80;90.90;;;;;;5016374;28;20198;-84
2022/08/14 09:05:23;;;;;;;3.75;2.63;;;26.70;89.80;;;;;;5033266;28;20627;-84
2022/08/14 09:08:13;;;;;;;3.33;2.70;;;26.70;89.20;;;;;;5052255;28;20188;-84
2022/08/14 09:10:40;;;;;;;4.07;2.75;;;26.80;89.40;;;;;;5055935;28;20189;-80
2022/08/14 09:13:07;;;;;;;6.20;2.72;;;27.00;88.90;;;;;;5053943;28;20682;-89
2022/08/14 09:15:33;;;;;;;2.90;2.70;;;27.30;88.60;;;;;;5036090;28;20206;-85
2022/08/14 09:17:59;;;;;;;2.80;2.60;;;27.40;88.20;;;;;;5053060;28;20339;-88
2022/08/14 09:20:25;;;;;;;2.90;2.60;;;27.60;86.30;;;;;;5036290;28;20217;-88
2022/08/14 09:22:53;;;;;;;2.78;2.58;;;27.80;85.90;;;;;;5054449;28;20190;-86
2022/08/14 09:25:19;;;;;;;2.28;2.15;;;28.00;84.60;;;;;;5050087;28;20185;-86
2022/08/14 09:27:45;;;;;;;2.67;2.47;;;28.10;82.00;;;;;;5051521;28;20726;-87
2022/08/14 09:30:11;;;;;;;2.95;2.30;;;28.10;81.20;;;;;;5034246;28;20320;-87
2022/08/14 09:33:03;;;;;;;2.60;2.40;;;28.20;82.00;;;;;;5032565;28;20216;-84
2022/08/14 09:36:18;;;;;;;2.47;2.17;;;28.50;80.90;;;;;;5026362;28;20322;-82
2022/08/14 09:39:05;;;;;;;3.55;2.45;;;28.40;80.40;;;;;;5035711;28;20231;-87
2022/08/14 09:41:49;;;;;;;2.70;2.50;;;28.70;79.90;;;;;;5051616;28;20217;-87
2022/08/14 09:44:50;;;;;;;2.88;2.45;;;28.80;80.60;;;;;;5034794;28;20227;-87
2022/08/14 09:47:17;;;;;;;2.63;2.42;;;28.90;79.40;;;;;;5035723;28;20181;-80
2022/08/14 09:49:43;;;;;;;2.42;2.22;;;29.10;79.30;;;;;;5036198;28;20179;-87
2022/08/14 09:52:14;;;;;;;2.55;2.25;;;29.30;78.30;;;;;;5015990;28;20336;-87
2022/08/14 09:54:42;;;;;;;2.63;2.40;;;29.30;78.70;;;;;;5016664;28;20174;-87
2022/08/14 09:57:23;;;;;;;2.38;2.17;;;29.60;78.90;;;;;;5019770;28;20255;-87
2022/08/14 09:59:50;;;;;;;2.40;2.20;;;29.70;76.00;;;;;;5035895;28;20170;-87
2022/08/14 10:02:28;;;;;;;2.20;2.10;;;29.70;74.20;;;;;;5035199;28;20198;-87
2022/08/14 10:05:10;;;;;;;1.80;1.70;;;29.90;72.40;;;;;;5051685;28;20166;-87
2022/08/14 10:07:50;;;;;;;2.20;1.60;;;30.10;71.60;;;;;;5053505;28;20626;-91
2022/08/14 10:10:38;;;;;;;1.92;1.83;;;30.10;70.30;;;;;;5035981;28;20257;-84
2022/08/14 10:13:06;;;;;;;2.63;1.75;;;29.70;70.80;;;;;;5034171;28;20200;-76
2022/08/14 10:15:37;;;;;;;1.77;1.67;;;29.80;71.30;;;;;;5050796;28;20178;-78
2022/08/14 10:18:08;;;;;;;2.22;1.98;;;29.90;69.60;;;;;;5050962;28;20223;-78
2022/08/14 10:20:43;;;;;;;2.72;1.60;;;30.00;69.90;;;;;;5033628;28;20209;-78
2022/08/14 10:23:21;;;;;;;2.15;1.85;;;29.90;69.30;;;;;;5034142;28;20197;-78
2022/08/14 10:25:50;;;;;;;1.77;1.67;;;30.00;69.90;;;;;;5021781;28;20210;-84
2022/08/14 10:28:18;;;;;;;1.80;1.70;;;30.20;69.00;;;;;;5046524;28;20209;-88
2022/08/14 10:30:50;;;;;;;1.80;1.70;;;30.50;69.20;;;;;;5023827;28;20265;-85
2022/08/14 10:33:28;;;;;;;2.20;2.00;;;30.70;68.10;;;;;;5031817;28;20206;-88
2022/08/14 10:35:55;;;;;;;1.83;1.73;;;30.70;66.80;;;;;;5041497;28;20766;-84
2022/08/14 10:38:33;;;;;;;1.90;1.80;;;30.80;65.00;;;;;;5029036;28;20191;-87
2022/08/14 10:41:15;;;;;;;1.90;1.80;;;31.00;66.20;;;;;;5026122;28;20202;-87
2022/08/14 10:43:43;;;;;;;2.40;1.85;;;31.00;65.10;;;;;;5034001;28;20232;-88
2022/08/14 10:46:17;;;;;;;1.95;1.65;;;31.00;65.40;;;;;;5055476;28;20181;-88
2022/08/14 10:49:08;;;;;;;1.75;1.60;;;30.90;65.60;;;;;;5038753;28;20185;-88
2022/08/14 10:51:34;;;;;;;2.03;1.65;;;31.20;64.80;;;;;;5038528;28;20280;-88
2022/08/14 10:54:08;;;;;;;1.98;1.65;;;31.30;64.90;;;;;;5038688;28;20174;-88
2022/08/14 10:56:34;;;;;;;3.13;1.60;;;31.30;64.30;;;;;;5038849;28;20192;-88
2022/08/14 10:59:15;;;;;;;1.70;1.60;;;31.30;64.00;;;;;;5038429;28;20272;-88
2022/08/14 11:01:41;;;;;;;1.63;1.52;;;31.30;62.70;;;;;;5054490;28;20267;-88
2022/08/14 11:04:24;;;;;;;1.65;1.55;;;31.10;62.40;;;;;;5038760;28;20185;-88
2022/08/14 11:06:57;;;;;;;2.95;1.60;;;31.00;63.80;;;;;;5038651;28;20261;-88
2022/08/14 11:09:23;;;;;;;1.70;1.60;;;30.90;64.20;;;;;;5039411;28;20262;-87
2022/08/14 11:11:55;;;;;;;2.08;1.50;;;31.20;64.20;;;;;;5039429;28;20209;-88
2022/08/14 11:14:21;;;;;;;1.92;1.60;;;31.50;63.10;;;;;;5038135;28;20255;-88
2022/08/14 11:16:48;;;;;;;1.83;1.50;;;31.70;64.40;;;;;;5037906;28;20210;-88
2022/08/14 11:19:15;;;;;;;2.00;1.40;;;32.00;64.00;;;;;;5038710;28;20253;-88
2022/08/14 11:21:43;;;;;;;1.80;1.65;;;32.30;62.10;;;;;;5037577;28;20224;-88
2022/08/14 11:24:11;;;;;;;3.20;1.67;;;32.40;61.60;;;;;;5054478;28;20170;-88
2022/08/14 11:26:38;;;;;;;1.73;1.63;;;32.60;61.00;;;;;;5038382;28;20186;-88
2022/08/14 11:29:05;;;;;;;4.47;1.80;;;32.70;60.00;;;;;;5038608;28;20174;-88
2022/08/14 11:31:33;;;;;;;1.95;1.83;;;32.10;61.70;;;;;;5037564;28;20240;-88
2022/08/14 11:33:59;;;;;;;1.65;1.55;;;31.90;62.00;;;;;;5055266;28;20189;-88
2022/08/14 11:36:28;;;;;;;1.70;1.60;;;32.00;63.10;;;;;;5037372;28;20174;-88
2022/08/14 11:38:54;;;;;;;1.60;1.40;;;32.30;60.30;;;;;;5037450;28;20177;-88
2022/08/14 11:41:20;;;;;;;1.60;1.50;;;32.40;60.50;;;;;;5037215;28;20312;-88
2022/08/14 11:43:49;;;;;;;1.60;1.50;;;32.70;59.80;;;;;;5037515;28;20185;-88
2022/08/14 11:46:15;;;;;;;1.77;1.67;;;32.50;59.90;;;;;;5037166;28;20174;-88
2022/08/14 11:48:47;;;;;;;1.92;1.60;;;32.70;59.10;;;;;;5037972;28;20178;-88
2022/08/14 11:51:57;;;;;;;1.65;1.30;;;33.00;58.00;;;;;;5053376;28;20190;-88
2022/08/14 11:54:27;;;;;;;2.30;1.90;;;33.10;58.40;;;;;;5038025;28;20178;-88
2022/08/14 11:56:54;;;;;;;1.65;1.55;;;33.40;57.70;;;;;;5037803;28;20178;-88
2022/08/14 11:59:21;;;;;;;1.88;1.70;;;33.60;57.30;;;;;;5037621;28;20189;-88
2022/08/14 12:01:47;;;;;;;2.17;1.85;;;33.70;56.80;;;;;;5036987;28;20220;-88
2022/08/14 12:04:18;;;;;;;2.72;2.08;;;33.60;56.80;;;;;;5036941;28;20181;-88
2022/08/14 12:06:51;;;;;;;2.22;2.10;;;33.50;57.10;;;;;;5037793;28;20185;-88
2022/08/14 12:09:36;;;;;;;2.15;2.05;;;33.60;57.00;;;;;;5037065;28;20213;-88
2022/08/14 12:12:23;;;;;;;2.42;2.22;;;33.90;56.70;;;;;;5036964;28;20205;-88
2022/08/14 12:14:55;;;;;;;2.47;1.95;;;34.10;57.10;;;;;;5037234;28;20269;-88
2022/08/14 12:17:28;;;;;;;15.75;14.32;;;34.40;56.70;;;;;;5036937;28;20178;-88
2022/08/14 12:19:57;;;;;;;2.42;2.33;;;34.30;55.90;;;;;;5053328;28;20696;-88
2022/08/14 12:22:36;;;;;;;2.50;2.30;;;33.90;56.50;;;;;;5036510;28;20212;-88
2022/08/14 12:25:06;;;;;;;2.20;2.10;;;34.10;56.00;;;;;;5052941;28;20225;-88
2022/08/14 12:27:50;;;;;;;2.63;2.50;;;34.10;55.60;;;;;;5036349;28;20182;-88
2022/08/14 12:30:28;;;;;;;2.78;2.55;;;34.00;56.30;;;;;;5036494;28;20182;-88
2022/08/14 12:32:57;;;;;;;2.78;2.58;;;34.20;56.40;;;;;;5036663;28;20206;-88
2022/08/14 12:35:34;;;;;;;2.70;2.50;;;34.10;54.90;;;;;;5052833;28;20209;-88
2022/08/14 12:38:01;;;;;;;2.55;2.35;;;34.20;55.60;;;;;;5036462;28;20236;-88
2022/08/14 12:40:30;;;;;;;2.58;2.40;;;34.20;55.50;;;;;;5036016;28;20267;-88
2022/08/14 12:43:02;;;;;;;2.95;2.70;;;34.00;54.40;;;;;;5036621;28;20264;-88
2022/08/14 12:45:32;;;;;;;2.72;2.53;;;34.00;55.80;;;;;;5036553;28;20170;-88
2022/08/14 12:48:05;;;;;;;3.38;2.80;;;34.30;55.80;;;;;;5052747;28;20185;-88
2022/08/14 12:54:19;;;;;;;3.00;2.80;;;34.50;54.20;;;;;;5054175;28;20217;-88
2022/08/14 12:56:46;;;;;;;3.38;3.05;;;34.60;54.70;;;;;;5035744;28;20182;-88
2022/08/14 12:59:13;;;;;;;2.90;2.70;;;34.90;54.80;;;;;;5035910;28;20281;-88
2022/08/14 13:01:39;;;;;;;3.30;3.10;;;35.00;53.90;;;;;;5035583;28;20224;-88
2022/08/14 13:04:11;;;;;;;2.90;2.70;;;35.20;54.60;;;;;;5036284;28;20182;-88
2022/08/14 13:06:40;;;;;;;3.15;2.95;;;35.30;54.80;;;;;;5035825;28;20785;-88
2022/08/14 13:09:07;;;;;;;3.33;3.00;;;35.60;54.90;;;;;;5035662;28;20185;-89
2022/08/14 13:11:43;;;;;;;3.33;3.03;;;35.50;54.60;;;;;;5035152;28;20213;-88
2022/08/14 13:14:15;;;;;;;3.75;3.45;;;35.60;55.00;;;;;;5035741;28;20208;-88
2022/08/14 13:16:42;;;;;;;3.67;3.30;;;35.70;54.40;;;;;;5035423;28;20186;-88
2022/08/14 13:19:14;;;;;;;3.15;2.95;;;35.50;53.00;;;;;;5034288;28;20319;-89
2022/08/14 13:21:42;;;;;;;3.42;3.13;;;35.40;54.60;;;;;;5034322;28;20300;-88